sensor_id;sensor_type;location;lat;lon;timestamp;P1;durP1;ratioP1;P2;durP2;ratioP2
6121;SDS011;3091;51.506;7.672;2024-03-29T00:00:43;14.70;;;14.10;;
6121;SDS011;3091;51.506;7.672;2024-03-29T00:03:09;14.73;;;14.13;;
6121;SDS011;3091;51.506;7.672;2024-03-29T00:05:36;14.07;;;13.57;;
6121;SDS011;3091;51.506;7.672;2024-03-29T00:08:05;15.00;;;14.40;;
6121;SDS011;3091;51.506;7.672;2024-03-29T00:10:31;14.60;;;14.10;;
6121;SDS011;3091;51.506;7.672;2024-03-29T00:12:59;14.60;;;14.10;;
6121;SDS011;3091;51.506;7.672;2024-03-29T00:15:25;14.13;;;13.63;;
6121;SDS011;3091;51.506;7.672;2024-03-29T00:17:53;14.40;;;13.90;;
6121;SDS011;3091;51.506;7.672;2024-03-29T00:20:19;14.50;;;14.00;;
6121;SDS011;3091;51.506;7.672;2024-03-29T00:22:46;13.90;;;13.40;;
6121;SDS011;3091;51.506;7.672;2024-03-29T00:25:12;13.70;;;13.20;;
6121;SDS011;3091;51.506;7.672;2024-03-29T00:27:38;14.27;;;13.77;;
6121;SDS011;3091;51.506;7.672;2024-03-29T00:30:04;13.60;;;13.10;;
6121;SDS011;3091;51.506;7.672;2024-03-29T00:32:30;13.60;;;13.10;;
6121;SDS011;3091;51.506;7.672;2024-03-29T00:34:56;14.40;;;13.80;;
6121;SDS011;3091;51.506;7.672;2024-03-29T00:37:23;13.80;;;13.30;;
6121;SDS011;3091;51.506;7.672;2024-03-29T00:39:49;14.00;;;13.50;;
6121;SDS011;3091;51.506;7.672;2024-03-29T00:42:15;14.20;;;13.70;;
6121;SDS011;3091;51.506;7.672;2024-03-29T00:44:44;14.60;;;14.00;;
6121;SDS011;3091;51.506;7.672;2024-03-29T00:47:10;14.10;;;13.60;;
6121;SDS011;3091;51.506;7.672;2024-03-29T00:49:38;14.97;;;14.17;;
6121;SDS011;3091;51.506;7.672;2024-03-29T00:52:04;14.77;;;14.27;;
6121;SDS011;3091;51.506;7.672;2024-03-29T00:54:31;14.10;;;13.60;;
6121;SDS011;3091;51.506;7.672;2024-03-29T00:56:57;14.20;;;13.70;;
6121;SDS011;3091;51.506;7.672;2024-03-29T00:59:23;14.80;;;14.20;;
6121;SDS011;3091;51.506;7.672;2024-03-29T01:01:49;13.97;;;13.47;;
6121;SDS011;3091;51.506;7.672;2024-03-29T01:04:15;13.93;;;13.43;;
6121;SDS011;3091;51.506;7.672;2024-03-29T01:06:41;14.60;;;14.10;;
6121;SDS011;3091;51.506;7.672;2024-03-29T01:09:10;14.43;;;13.93;;
6121;SDS011;3091;51.506;7.672;2024-03-29T01:11:37;14.50;;;14.00;;
6121;SDS011;3091;51.506;7.672;2024-03-29T01:14:03;14.70;;;14.10;;
6121;SDS011;3091;51.506;7.672;2024-03-29T01:16:29;14.80;;;14.20;;
6121;SDS011;3091;51.506;7.672;2024-03-29T01:18:57;14.00;;;13.50;;
6121;SDS011;3091;51.506;7.672;2024-03-29T01:21:23;14.40;;;13.90;;
6121;SDS011;3091;51.506;7.672;2024-03-29T01:23:49;15.97;;;15.00;;
6121;SDS011;3091;51.506;7.672;2024-03-29T01:26:15;14.97;;;14.37;;
6121;SDS011;3091;51.506;7.672;2024-03-29T01:28:42;14.77;;;14.10;;
6121;SDS011;3091;51.506;7.672;2024-03-29T01:31:08;15.10;;;14.50;;
6121;SDS011;3091;51.506;7.672;2024-03-29T01:33:34;14.10;;;13.60;;
6121;SDS011;3091;51.506;7.672;2024-03-29T01:36:06;14.20;;;13.70;;
6121;SDS011;3091;51.506;7.672;2024-03-29T01:38:32;14.40;;;13.90;;
6121;SDS011;3091;51.506;7.672;2024-03-29T01:41:00;13.70;;;13.20;;
6121;SDS011;3091;51.506;7.672;2024-03-29T01:43:27;13.10;;;12.70;;
6121;SDS011;3091;51.506;7.672;2024-03-29T01:45:54;13.57;;;13.07;;
6121;SDS011;3091;51.506;7.672;2024-03-29T01:48:21;13.70;;;13.20;;
6121;SDS011;3091;51.506;7.672;2024-03-29T01:50:48;14.23;;;13.73;;
6121;SDS011;3091;51.506;7.672;2024-03-29T01:53:14;15.33;;;14.73;;
6121;SDS011;3091;51.506;7.672;2024-03-29T01:55:41;13.20;;;12.80;;
6121;SDS011;3091;51.506;7.672;2024-03-29T01:58:10;14.40;;;13.90;;
6121;SDS011;3091;51.506;7.672;2024-03-29T02:00:38;13.20;;;12.80;;
6121;SDS011;3091;51.506;7.672;2024-03-29T02:03:05;13.60;;;13.10;;
6121;SDS011;3091;51.506;7.672;2024-03-29T02:05:35;14.60;;;14.10;;
6121;SDS011;3091;51.506;7.672;2024-03-29T02:08:02;14.07;;;13.57;;
6121;SDS011;3091;51.506;7.672;2024-03-29T02:10:28;13.30;;;12.80;;
6121;SDS011;3091;51.506;7.672;2024-03-29T02:12:55;13.70;;;13.10;;
6121;SDS011;3091;51.506;7.672;2024-03-29T02:15:21;14.47;;;13.40;;
6121;SDS011;3091;51.506;7.672;2024-03-29T02:17:47;13.20;;;12.70;;
6121;SDS011;3091;51.506;7.672;2024-03-29T02:20:13;13.10;;;12.70;;
6121;SDS011;3091;51.506;7.672;2024-03-29T02:22:41;13.50;;;13.00;;
6121;SDS011;3091;51.506;7.672;2024-03-29T02:25:11;13.43;;;12.93;;
6121;SDS011;3091;51.506;7.672;2024-03-29T02:27:38;13.30;;;12.80;;
6121;SDS011;3091;51.506;7.672;2024-03-29T02:30:04;13.50;;;13.00;;
6121;SDS011;3091;51.506;7.672;2024-03-29T02:32:30;13.37;;;12.87;;
6121;SDS011;3091;51.506;7.672;2024-03-29T02:34:56;13.93;;;13.30;;
6121;SDS011;3091;51.506;7.672;2024-03-29T02:37:22;13.60;;;13.10;;
6121;SDS011;3091;51.506;7.672;2024-03-29T02:39:48;13.60;;;13.10;;
6121;SDS011;3091;51.506;7.672;2024-03-29T02:42:14;13.60;;;13.10;;
6121;SDS011;3091;51.506;7.672;2024-03-29T02:44:40;13.70;;;13.20;;
6121;SDS011;3091;51.506;7.672;2024-03-29T02:47:06;13.97;;;13.27;;
6121;SDS011;3091;51.506;7.672;2024-03-29T02:49:32;13.50;;;13.00;;
6121;SDS011;3091;51.506;7.672;2024-03-29T02:51:58;13.73;;;13.13;;
6121;SDS011;3091;51.506;7.672;2024-03-29T02:54:27;13.20;;;12.80;;
6121;SDS011;3091;51.506;7.672;2024-03-29T02:56:53;13.43;;;12.83;;
6121;SDS011;3091;51.506;7.672;2024-03-29T02:59:19;13.20;;;12.70;;
6121;SDS011;3091;51.506;7.672;2024-03-29T03:01:45;13.30;;;12.90;;
6121;SDS011;3091;51.506;7.672;2024-03-29T03:04:11;13.30;;;12.90;;
6121;SDS011;3091;51.506;7.672;2024-03-29T03:06:37;13.10;;;12.67;;
6121;SDS011;3091;51.506;7.672;2024-03-29T03:09:03;13.40;;;12.90;;
6121;SDS011;3091;51.506;7.672;2024-03-29T03:11:47;13.10;;;12.60;;
6121;SDS011;3091;51.506;7.672;2024-03-29T03:14:13;13.33;;;12.83;;
6121;SDS011;3091;51.506;7.672;2024-03-29T03:16:39;13.30;;;12.80;;
6121;SDS011;3091;51.506;7.672;2024-03-29T03:19:08;13.30;;;12.80;;
6121;SDS011;3091;51.506;7.672;2024-03-29T03:21:35;13.23;;;12.73;;
6121;SDS011;3091;51.506;7.672;2024-03-29T03:24:02;13.00;;;12.50;;
6121;SDS011;3091;51.506;7.672;2024-03-29T03:26:29;13.10;;;12.60;;
6121;SDS011;3091;51.506;7.672;2024-03-29T03:28:55;13.30;;;12.80;;
6121;SDS011;3091;51.506;7.672;2024-03-29T03:31:24;13.90;;;13.40;;
6121;SDS011;3091;51.506;7.672;2024-03-29T03:33:50;13.40;;;12.90;;
6121;SDS011;3091;51.506;7.672;2024-03-29T03:36:16;14.40;;;13.90;;
6121;SDS011;3091;51.506;7.672;2024-03-29T03:38:42;14.80;;;14.20;;
6121;SDS011;3091;51.506;7.672;2024-03-29T03:41:08;16.30;;;15.70;;
6121;SDS011;3091;51.506;7.672;2024-03-29T03:43:34;15.70;;;15.10;;
6121;SDS011;3091;51.506;7.672;2024-03-29T03:46:00;15.83;;;15.13;;
6121;SDS011;3091;51.506;7.672;2024-03-29T03:48:27;14.70;;;14.20;;
6121;SDS011;3091;51.506;7.672;2024-03-29T03:50:54;14.73;;;14.10;;
6121;SDS011;3091;51.506;7.672;2024-03-29T03:53:20;14.70;;;14.20;;
6121;SDS011;3091;51.506;7.672;2024-03-29T03:55:48;15.30;;;14.70;;
6121;SDS011;3091;51.506;7.672;2024-03-29T03:58:15;13.97;;;13.47;;
6121;SDS011;3091;51.506;7.672;2024-03-29T04:00:41;14.30;;;13.80;;
6121;SDS011;3091;51.506;7.672;2024-03-29T04:03:07;14.20;;;13.70;;
6121;SDS011;3091;51.506;7.672;2024-03-29T04:05:33;14.20;;;13.70;;
6121;SDS011;3091;51.506;7.672;2024-03-29T04:08:02;15.63;;;15.03;;
6121;SDS011;3091;51.506;7.672;2024-03-29T04:10:28;15.80;;;15.20;;
6121;SDS011;3091;51.506;7.672;2024-03-29T04:12:54;16.90;;;16.30;;
6121;SDS011;3091;51.506;7.672;2024-03-29T04:15:20;18.20;;;17.50;;
6121;SDS011;3091;51.506;7.672;2024-03-29T04:17:46;19.97;;;19.17;;
6121;SDS011;3091;51.506;7.672;2024-03-29T04:20:12;18.40;;;17.70;;
6121;SDS011;3091;51.506;7.672;2024-03-29T04:22:38;21.10;;;19.93;;
6121;SDS011;3091;51.506;7.672;2024-03-29T04:25:06;20.10;;;19.30;;
6121;SDS011;3091;51.506;7.672;2024-03-29T04:27:32;22.90;;;21.90;;
6121;SDS011;3091;51.506;7.672;2024-03-29T04:29:58;24.13;;;23.03;;
6121;SDS011;3091;51.506;7.672;2024-03-29T04:32:24;27.43;;;26.13;;
6121;SDS011;3091;51.506;7.672;2024-03-29T04:34:51;29.40;;;28.00;;
6121;SDS011;3091;51.506;7.672;2024-03-29T04:37:17;29.93;;;28.43;;
6121;SDS011;3091;51.506;7.672;2024-03-29T04:39:44;32.47;;;30.77;;
6121;SDS011;3091;51.506;7.672;2024-03-29T04:42:10;38.97;;;36.47;;
6121;SDS011;3091;51.506;7.672;2024-03-29T04:44:36;40.07;;;37.97;;
6121;SDS011;3091;51.506;7.672;2024-03-29T04:47:03;48.00;;;45.50;;
6121;SDS011;3091;51.506;7.672;2024-03-29T04:49:29;44.60;;;42.20;;
6121;SDS011;3091;51.506;7.672;2024-03-29T04:52:04;51.80;;;49.00;;
6121;SDS011;3091;51.506;7.672;2024-03-29T04:54:33;57.57;;;54.37;;
6121;SDS011;3091;51.506;7.672;2024-03-29T04:56:59;66.57;;;63.07;;
6121;SDS011;3091;51.506;7.672;2024-03-29T04:59:31;70.20;;;66.60;;
6121;SDS011;3091;51.506;7.672;2024-03-29T05:02:18;74.80;;;70.90;;
6121;SDS011;3091;51.506;7.672;2024-03-29T05:04:44;83.50;;;79.50;;
6121;SDS011;3091;51.506;7.672;2024-03-29T05:07:10;78.43;;;74.53;;
6121;SDS011;3091;51.506;7.672;2024-03-29T05:09:36;93.37;;;89.07;;
6121;SDS011;3091;51.506;7.672;2024-03-29T05:12:02;98.00;;;93.50;;
6121;SDS011;3091;51.506;7.672;2024-03-29T05:14:28;97.77;;;93.27;;
6121;SDS011;3091;51.506;7.672;2024-03-29T05:16:54;103.30;;;98.60;;
6121;SDS011;3091;51.506;7.672;2024-03-29T05:19:20;113.63;;;108.63;;
6121;SDS011;3091;51.506;7.672;2024-03-29T05:21:46;121.73;;;116.43;;
6121;SDS011;3091;51.506;7.672;2024-03-29T05:24:12;128.60;;;123.07;;
6121;SDS011;3091;51.506;7.672;2024-03-29T05:26:38;137.10;;;131.30;;
6121;SDS011;3091;51.506;7.672;2024-03-29T05:29:04;137.57;;;131.67;;
6121;SDS011;3091;51.506;7.672;2024-03-29T05:31:30;143.17;;;137.07;;
6121;SDS011;3091;51.506;7.672;2024-03-29T05:33:59;145.40;;;139.20;;
6121;SDS011;3091;51.506;7.672;2024-03-29T05:36:25;149.23;;;142.93;;
6121;SDS011;3091;51.506;7.672;2024-03-29T05:38:51;146.50;;;140.30;;
6121;SDS011;3091;51.506;7.672;2024-03-29T05:41:20;144.43;;;138.23;;
6121;SDS011;3091;51.506;7.672;2024-03-29T05:43:46;144.10;;;137.90;;
6121;SDS011;3091;51.506;7.672;2024-03-29T05:46:11;161.10;;;154.50;;
6121;SDS011;3091;51.506;7.672;2024-03-29T05:48:37;158.80;;;152.30;;
6121;SDS011;3091;51.506;7.672;2024-03-29T05:51:04;155.60;;;149.13;;
6121;SDS011;3091;51.506;7.672;2024-03-29T05:53:30;151.50;;;145.20;;
6121;SDS011;3091;51.506;7.672;2024-03-29T05:55:56;157.30;;;150.80;;
6121;SDS011;3091;51.506;7.672;2024-03-29T05:58:22;159.03;;;152.53;;
6121;SDS011;3091;51.506;7.672;2024-03-29T06:00:48;163.60;;;157.00;;
6121;SDS011;3091;51.506;7.672;2024-03-29T06:03:14;160.27;;;153.73;;
6121;SDS011;3091;51.506;7.672;2024-03-29T06:05:40;160.37;;;153.87;;
6121;SDS011;3091;51.506;7.672;2024-03-29T06:08:07;158.93;;;152.43;;
6121;SDS011;3091;51.506;7.672;2024-03-29T06:10:35;162.20;;;155.60;;
6121;SDS011;3091;51.506;7.672;2024-03-29T06:13:01;168.20;;;161.30;;
6121;SDS011;3091;51.506;7.672;2024-03-29T06:15:42;162.17;;;155.57;;
6121;SDS011;3091;51.506;7.672;2024-03-29T06:18:27;158.60;;;152.10;;
6121;SDS011;3091;51.506;7.672;2024-03-29T06:20:53;159.93;;;153.33;;
6121;SDS011;3091;51.506;7.672;2024-03-29T06:23:19;160.57;;;153.97;;
6121;SDS011;3091;51.506;7.672;2024-03-29T06:25:45;164.17;;;157.47;;
6121;SDS011;3091;51.506;7.672;2024-03-29T06:28:11;167.20;;;160.40;;
6121;SDS011;3091;51.506;7.672;2024-03-29T06:30:37;164.10;;;157.40;;
6121;SDS011;3091;51.506;7.672;2024-03-29T06:33:06;163.17;;;156.47;;
6121;SDS011;3091;51.506;7.672;2024-03-29T06:35:33;155.27;;;148.97;;
6121;SDS011;3091;51.506;7.672;2024-03-29T06:37:59;158.07;;;151.57;;
6121;SDS011;3091;51.506;7.672;2024-03-29T06:40:25;157.90;;;151.50;;
6121;SDS011;3091;51.506;7.672;2024-03-29T06:42:51;157.47;;;151.07;;
6121;SDS011;3091;51.506;7.672;2024-03-29T06:45:18;152.57;;;146.00;;
6121;SDS011;3091;51.506;7.672;2024-03-29T06:47:44;148.90;;;142.50;;
6121;SDS011;3091;51.506;7.672;2024-03-29T06:50:10;135.50;;;129.80;;
6121;SDS011;3091;51.506;7.672;2024-03-29T06:52:37;138.40;;;132.47;;
6121;SDS011;3091;51.506;7.672;2024-03-29T06:55:03;138.60;;;132.80;;
6121;SDS011;3091;51.506;7.672;2024-03-29T06:57:29;143.83;;;137.73;;
6121;SDS011;3091;51.506;7.672;2024-03-29T06:59:57;143.50;;;137.40;;
6121;SDS011;3091;51.506;7.672;2024-03-29T07:02:23;143.00;;;137.00;;
6121;SDS011;3091;51.506;7.672;2024-03-29T07:04:50;141.07;;;135.07;;
6121;SDS011;3091;51.506;7.672;2024-03-29T07:07:16;138.80;;;133.00;;
6121;SDS011;3091;51.506;7.672;2024-03-29T07:09:42;132.70;;;127.10;;
6121;SDS011;3091;51.506;7.672;2024-03-29T07:12:08;139.07;;;133.27;;
6121;SDS011;3091;51.506;7.672;2024-03-29T07:14:35;144.57;;;138.57;;
6121;SDS011;3091;51.506;7.672;2024-03-29T07:17:01;149.10;;;143.00;;
6121;SDS011;3091;51.506;7.672;2024-03-29T07:19:27;148.80;;;142.63;;
6121;SDS011;3091;51.506;7.672;2024-03-29T07:21:53;154.60;;;148.20;;
6121;SDS011;3091;51.506;7.672;2024-03-29T07:24:19;155.10;;;148.73;;
6121;SDS011;3091;51.506;7.672;2024-03-29T07:26:46;149.97;;;143.67;;
6121;SDS011;3091;51.506;7.672;2024-03-29T07:29:11;147.80;;;141.70;;
6121;SDS011;3091;51.506;7.672;2024-03-29T07:31:40;136.60;;;131.00;;
6121;SDS011;3091;51.506;7.672;2024-03-29T07:34:06;134.63;;;129.13;;
6121;SDS011;3091;51.506;7.672;2024-03-29T07:36:32;120.33;;;115.43;;
6121;SDS011;3091;51.506;7.672;2024-03-29T07:39:00;101.67;;;97.43;;
6121;SDS011;3091;51.506;7.672;2024-03-29T07:41:27;74.03;;;70.73;;
6121;SDS011;3091;51.506;7.672;2024-03-29T07:43:53;74.07;;;70.77;;
6121;SDS011;3091;51.506;7.672;2024-03-29T07:46:22;73.37;;;70.07;;
6121;SDS011;3091;51.506;7.672;2024-03-29T07:48:50;68.20;;;65.10;;
6121;SDS011;3091;51.506;7.672;2024-03-29T07:51:16;62.80;;;59.90;;
6121;SDS011;3091;51.506;7.672;2024-03-29T07:53:42;49.20;;;46.70;;
6121;SDS011;3091;51.506;7.672;2024-03-29T07:56:08;43.00;;;41.00;;
6121;SDS011;3091;51.506;7.672;2024-03-29T07:58:34;32.50;;;30.90;;
6121;SDS011;3091;51.506;7.672;2024-03-29T08:01:00;29.60;;;28.20;;
6121;SDS011;3091;51.506;7.672;2024-03-29T08:03:26;28.20;;;26.80;;
6121;SDS011;3091;51.506;7.672;2024-03-29T08:05:58;28.07;;;26.87;;
6121;SDS011;3091;51.506;7.672;2024-03-29T08:08:25;27.20;;;26.00;;
6121;SDS011;3091;51.506;7.672;2024-03-29T08:10:52;26.30;;;25.20;;
6121;SDS011;3091;51.506;7.672;2024-03-29T08:13:18;25.23;;;24.13;;
6121;SDS011;3091;51.506;7.672;2024-03-29T08:15:46;25.23;;;24.13;;
6121;SDS011;3091;51.506;7.672;2024-03-29T08:18:12;24.30;;;23.30;;
6121;SDS011;3091;51.506;7.672;2024-03-29T08:20:38;24.30;;;23.30;;
6121;SDS011;3091;51.506;7.672;2024-03-29T08:23:04;23.80;;;22.80;;
6121;SDS011;3091;51.506;7.672;2024-03-29T08:25:30;22.33;;;21.43;;
6121;SDS011;3091;51.506;7.672;2024-03-29T08:27:58;22.13;;;21.23;;
6121;SDS011;3091;51.506;7.672;2024-03-29T08:30:25;21.60;;;20.80;;
6121;SDS011;3091;51.506;7.672;2024-03-29T08:32:51;21.17;;;20.37;;
6121;SDS011;3091;51.506;7.672;2024-03-29T08:35:18;20.70;;;19.90;;
6121;SDS011;3091;51.506;7.672;2024-03-29T08:37:45;20.00;;;19.30;;
6121;SDS011;3091;51.506;7.672;2024-03-29T08:40:11;20.20;;;19.50;;
6121;SDS011;3091;51.506;7.672;2024-03-29T08:42:37;21.03;;;20.23;;
6121;SDS011;3091;51.506;7.672;2024-03-29T08:45:04;21.17;;;19.70;;
6121;SDS011;3091;51.506;7.672;2024-03-29T08:47:33;21.93;;;20.73;;
6121;SDS011;3091;51.506;7.672;2024-03-29T08:49:59;20.37;;;19.57;;
6121;SDS011;3091;51.506;7.672;2024-03-29T08:52:25;20.67;;;19.90;;
6121;SDS011;3091;51.506;7.672;2024-03-29T08:54:51;21.47;;;20.27;;
6121;SDS011;3091;51.506;7.672;2024-03-29T08:57:17;20.20;;;19.50;;
6121;SDS011;3091;51.506;7.672;2024-03-29T08:59:43;20.00;;;19.30;;
6121;SDS011;3091;51.506;7.672;2024-03-29T09:02:09;20.20;;;19.50;;
6121;SDS011;3091;51.506;7.672;2024-03-29T09:04:35;20.10;;;19.40;;
6121;SDS011;3091;51.506;7.672;2024-03-29T09:07:02;20.27;;;19.47;;
6121;SDS011;3091;51.506;7.672;2024-03-29T09:09:28;19.63;;;18.93;;
6121;SDS011;3091;51.506;7.672;2024-03-29T09:11:54;20.10;;;19.40;;
6121;SDS011;3091;51.506;7.672;2024-03-29T09:14:21;19.70;;;19.00;;
6121;SDS011;3091;51.506;7.672;2024-03-29T09:16:47;19.60;;;18.70;;
6121;SDS011;3091;51.506;7.672;2024-03-29T09:19:13;20.00;;;19.20;;
6121;SDS011;3091;51.506;7.672;2024-03-29T09:21:39;19.70;;;18.90;;
6121;SDS011;3091;51.506;7.672;2024-03-29T09:24:06;18.73;;;18.03;;
6121;SDS011;3091;51.506;7.672;2024-03-29T09:26:32;19.80;;;19.10;;
6121;SDS011;3091;51.506;7.672;2024-03-29T09:28:58;19.40;;;18.70;;
6121;SDS011;3091;51.506;7.672;2024-03-29T09:31:24;19.83;;;19.13;;
6121;SDS011;3091;51.506;7.672;2024-03-29T09:33:51;20.60;;;19.80;;
6121;SDS011;3091;51.506;7.672;2024-03-29T09:36:21;20.40;;;19.60;;
6121;SDS011;3091;51.506;7.672;2024-03-29T09:38:50;20.67;;;19.77;;
6121;SDS011;3091;51.506;7.672;2024-03-29T09:41:18;19.13;;;18.43;;
6121;SDS011;3091;51.506;7.672;2024-03-29T09:43:45;19.30;;;18.60;;
6121;SDS011;3091;51.506;7.672;2024-03-29T09:46:15;19.70;;;19.00;;
6121;SDS011;3091;51.506;7.672;2024-03-29T09:48:42;19.70;;;19.00;;
6121;SDS011;3091;51.506;7.672;2024-03-29T09:51:11;20.07;;;19.37;;
6121;SDS011;3091;51.506;7.672;2024-03-29T09:53:40;22.10;;;20.33;;
6121;SDS011;3091;51.506;7.672;2024-03-29T09:56:07;19.30;;;18.60;;
6121;SDS011;3091;51.506;7.672;2024-03-29T09:58:34;19.20;;;18.50;;
6121;SDS011;3091;51.506;7.672;2024-03-29T10:01:05;18.70;;;18.00;;
6121;SDS011;3091;51.506;7.672;2024-03-29T10:03:35;19.30;;;18.60;;
6121;SDS011;3091;51.506;7.672;2024-03-29T10:06:02;19.90;;;19.20;;
6121;SDS011;3091;51.506;7.672;2024-03-29T10:08:28;19.60;;;18.90;;
6121;SDS011;3091;51.506;7.672;2024-03-29T10:10:55;19.20;;;18.50;;
6121;SDS011;3091;51.506;7.672;2024-03-29T10:13:22;20.07;;;19.37;;
6121;SDS011;3091;51.506;7.672;2024-03-29T10:15:49;19.90;;;19.20;;
6121;SDS011;3091;51.506;7.672;2024-03-29T10:18:16;20.60;;;19.80;;
6121;SDS011;3091;51.506;7.672;2024-03-29T10:20:44;20.00;;;19.30;;
6121;SDS011;3091;51.506;7.672;2024-03-29T10:23:13;19.97;;;19.27;;
6121;SDS011;3091;51.506;7.672;2024-03-29T10:25:39;18.90;;;18.30;;
6121;SDS011;3091;51.506;7.672;2024-03-29T10:28:05;19.90;;;19.20;;
6121;SDS011;3091;51.506;7.672;2024-03-29T10:30:31;20.13;;;19.43;;
6121;SDS011;3091;51.506;7.672;2024-03-29T10:32:58;20.00;;;19.30;;
6121;SDS011;3091;51.506;7.672;2024-03-29T10:35:28;19.27;;;18.57;;
6121;SDS011;3091;51.506;7.672;2024-03-29T10:37:54;19.90;;;19.20;;
6121;SDS011;3091;51.506;7.672;2024-03-29T10:40:21;20.53;;;19.83;;
6121;SDS011;3091;51.506;7.672;2024-03-29T10:42:49;20.87;;;20.17;;
6121;SDS011;3091;51.506;7.672;2024-03-29T10:45:15;20.17;;;19.47;;
6121;SDS011;3091;51.506;7.672;2024-03-29T10:47:42;20.20;;;19.50;;
6121;SDS011;3091;51.506;7.672;2024-03-29T10:50:12;20.47;;;19.77;;
6121;SDS011;3091;51.506;7.672;2024-03-29T10:52:41;21.30;;;20.50;;
6121;SDS011;3091;51.506;7.672;2024-03-29T10:55:11;20.80;;;20.10;;
6121;SDS011;3091;51.506;7.672;2024-03-29T10:57:42;19.60;;;18.90;;
6121;SDS011;3091;51.506;7.672;2024-03-29T11:00:11;19.73;;;19.03;;
6121;SDS011;3091;51.506;7.672;2024-03-29T11:05:12;18.90;;;18.30;;
6121;SDS011;3091;51.506;7.672;2024-03-29T11:07:41;17.93;;;17.33;;
6121;SDS011;3091;51.506;7.672;2024-03-29T11:10:11;17.90;;;17.30;;
6121;SDS011;3091;51.506;7.672;2024-03-29T11:12:47;18.03;;;17.43;;
6121;SDS011;3091;51.506;7.672;2024-03-29T11:15:20;18.97;;;18.37;;
6121;SDS011;3091;51.506;7.672;2024-03-29T11:17:48;18.50;;;17.90;;
6121;SDS011;3091;51.506;7.672;2024-03-29T11:20:15;19.10;;;18.50;;
6121;SDS011;3091;51.506;7.672;2024-03-29T11:22:47;18.40;;;17.80;;
6121;SDS011;3091;51.506;7.672;2024-03-29T11:25:13;18.33;;;17.73;;
6121;SDS011;3091;51.506;7.672;2024-03-29T11:27:39;19.60;;;18.80;;
6121;SDS011;3091;51.506;7.672;2024-03-29T11:30:05;18.63;;;18.03;;
6121;SDS011;3091;51.506;7.672;2024-03-29T11:32:35;18.80;;;18.20;;
6121;SDS011;3091;51.506;7.672;2024-03-29T11:35:03;19.10;;;18.50;;
6121;SDS011;3091;51.506;7.672;2024-03-29T11:37:32;18.90;;;18.30;;
6121;SDS011;3091;51.506;7.672;2024-03-29T11:39:59;19.60;;;18.90;;
6121;SDS011;3091;51.506;7.672;2024-03-29T11:42:38;19.13;;;18.53;;
6121;SDS011;3091;51.506;7.672;2024-03-29T11:45:04;20.80;;;20.10;;
6121;SDS011;3091;51.506;7.672;2024-03-29T11:47:32;20.53;;;19.83;;
6121;SDS011;3091;51.506;7.672;2024-03-29T11:49:59;28.80;;;27.13;;
6121;SDS011;3091;51.506;7.672;2024-03-29T11:52:26;17.20;;;16.60;;
6121;SDS011;3091;51.506;7.672;2024-03-29T11:54:53;16.93;;;16.33;;
6121;SDS011;3091;51.506;7.672;2024-03-29T11:57:19;17.07;;;16.47;;
6121;SDS011;3091;51.506;7.672;2024-03-29T11:59:45;17.00;;;16.40;;
6121;SDS011;3091;51.506;7.672;2024-03-29T12:02:12;16.70;;;16.17;;
6121;SDS011;3091;51.506;7.672;2024-03-29T12:04:41;20.83;;;20.13;;
6121;SDS011;3091;51.506;7.672;2024-03-29T12:07:08;19.00;;;18.30;;
6121;SDS011;3091;51.506;7.672;2024-03-29T12:09:34;19.07;;;18.47;;
6121;SDS011;3091;51.506;7.672;2024-03-29T12:12:00;19.93;;;19.33;;
6121;SDS011;3091;51.506;7.672;2024-03-29T12:14:31;18.27;;;17.67;;
6121;SDS011;3091;51.506;7.672;2024-03-29T12:17:02;17.53;;;16.83;;
6121;SDS011;3091;51.506;7.672;2024-03-29T12:19:34;16.60;;;16.00;;
6121;SDS011;3091;51.506;7.672;2024-03-29T12:22:03;17.13;;;16.53;;
6121;SDS011;3091;51.506;7.672;2024-03-29T12:24:29;17.60;;;17.00;;
6121;SDS011;3091;51.506;7.672;2024-03-29T12:26:55;19.10;;;18.50;;
6121;SDS011;3091;51.506;7.672;2024-03-29T12:29:24;17.90;;;17.30;;
6121;SDS011;3091;51.506;7.672;2024-03-29T12:32:01;17.50;;;16.90;;
6121;SDS011;3091;51.506;7.672;2024-03-29T12:34:27;16.77;;;16.27;;
6121;SDS011;3091;51.506;7.672;2024-03-29T12:36:53;18.20;;;17.60;;
6121;SDS011;3091;51.506;7.672;2024-03-29T12:39:19;17.37;;;16.77;;
6121;SDS011;3091;51.506;7.672;2024-03-29T12:41:48;18.80;;;18.20;;
6121;SDS011;3091;51.506;7.672;2024-03-29T12:44:14;17.43;;;16.83;;
6121;SDS011;3091;51.506;7.672;2024-03-29T12:46:40;17.90;;;17.30;;
6121;SDS011;3091;51.506;7.672;2024-03-29T12:49:14;18.60;;;18.00;;
6121;SDS011;3091;51.506;7.672;2024-03-29T12:51:40;22.80;;;21.90;;
6121;SDS011;3091;51.506;7.672;2024-03-29T12:54:06;37.77;;;36.07;;
6121;SDS011;3091;51.506;7.672;2024-03-29T12:56:33;51.90;;;49.30;;
6121;SDS011;3091;51.506;7.672;2024-03-29T12:59:01;92.10;;;87.80;;
6121;SDS011;3091;51.506;7.672;2024-03-29T13:01:27;124.40;;;119.00;;
6121;SDS011;3091;51.506;7.672;2024-03-29T13:03:53;120.90;;;115.60;;
6121;SDS011;3091;51.506;7.672;2024-03-29T13:06:19;123.87;;;118.47;;
6121;SDS011;3091;51.506;7.672;2024-03-29T13:08:45;149.00;;;142.80;;
6121;SDS011;3091;51.506;7.672;2024-03-29T13:11:11;147.30;;;141.10;;
6121;SDS011;3091;51.506;7.672;2024-03-29T13:13:37;168.40;;;161.50;;
6121;SDS011;3091;51.506;7.672;2024-03-29T13:16:05;156.33;;;149.83;;
6121;SDS011;3091;51.506;7.672;2024-03-29T13:18:31;175.87;;;167.50;;
6121;SDS011;3091;51.506;7.672;2024-03-29T13:20:57;126.00;;;120.50;;
6121;SDS011;3091;51.506;7.672;2024-03-29T13:23:27;159.53;;;153.00;;
6121;SDS011;3091;51.506;7.672;2024-03-29T13:25:53;152.73;;;146.43;;
6121;SDS011;3091;51.506;7.672;2024-03-29T13:28:21;138.93;;;133.13;;
6121;SDS011;3091;51.506;7.672;2024-03-29T13:30:47;114.60;;;109.57;;
6121;SDS011;3091;51.506;7.672;2024-03-29T13:33:16;73.33;;;69.83;;
6121;SDS011;3091;51.506;7.672;2024-03-29T13:35:42;57.33;;;54.63;;
6121;SDS011;3091;51.506;7.672;2024-03-29T13:38:09;49.60;;;47.30;;
6121;SDS011;3091;51.506;7.672;2024-03-29T13:40:38;38.77;;;37.17;;
6121;SDS011;3091;51.506;7.672;2024-03-29T13:43:05;29.77;;;28.57;;
6121;SDS011;3091;51.506;7.672;2024-03-29T13:45:31;28.00;;;26.90;;
6121;SDS011;3091;51.506;7.672;2024-03-29T13:47:57;26.00;;;25.00;;
6121;SDS011;3091;51.506;7.672;2024-03-29T13:50:23;26.00;;;25.00;;
6121;SDS011;3091;51.506;7.672;2024-03-29T13:52:49;24.83;;;23.93;;
6121;SDS011;3091;51.506;7.672;2024-03-29T13:55:16;24.00;;;23.10;;
6121;SDS011;3091;51.506;7.672;2024-03-29T13:57:42;22.27;;;21.47;;
6121;SDS011;3091;51.506;7.672;2024-03-29T14:00:09;21.70;;;21.00;;
6121;SDS011;3091;51.506;7.672;2024-03-29T14:02:39;21.20;;;20.50;;
6121;SDS011;3091;51.506;7.672;2024-03-29T14:05:05;21.40;;;20.70;;
6121;SDS011;3091;51.506;7.672;2024-03-29T14:07:31;21.20;;;20.50;;
6121;SDS011;3091;51.506;7.672;2024-03-29T14:09:57;20.90;;;20.20;;
6121;SDS011;3091;51.506;7.672;2024-03-29T14:12:23;20.33;;;19.63;;
6121;SDS011;3091;51.506;7.672;2024-03-29T14:14:51;21.40;;;20.50;;
6121;SDS011;3091;51.506;7.672;2024-03-29T14:17:18;19.83;;;19.13;;
6121;SDS011;3091;51.506;7.672;2024-03-29T14:19:44;22.60;;;21.80;;
6121;SDS011;3091;51.506;7.672;2024-03-29T14:22:13;20.17;;;19.47;;
6121;SDS011;3091;51.506;7.672;2024-03-29T14:24:40;17.77;;;17.17;;
6121;SDS011;3091;51.506;7.672;2024-03-29T14:27:06;19.03;;;18.43;;
6121;SDS011;3091;51.506;7.672;2024-03-29T14:29:32;18.57;;;17.97;;
6121;SDS011;3091;51.506;7.672;2024-03-29T14:31:59;19.30;;;18.60;;
6121;SDS011;3091;51.506;7.672;2024-03-29T14:34:26;19.30;;;18.53;;
6121;SDS011;3091;51.506;7.672;2024-03-29T14:36:52;19.70;;;19.00;;
6121;SDS011;3091;51.506;7.672;2024-03-29T14:39:18;19.90;;;19.10;;
6121;SDS011;3091;51.506;7.672;2024-03-29T14:41:46;19.47;;;18.77;;
6121;SDS011;3091;51.506;7.672;2024-03-29T14:44:12;20.00;;;19.20;;